sensor_id;sensor_type;location;lat;lon;timestamp;P1;durP1;ratioP1;P2;durP2;ratioP2
67065;SDS011;53978;43.846;25.952;2023-07-20T00:02:18;24.25;;;3.65;;
67065;SDS011;53978;43.846;25.952;2023-07-20T00:04:44;24.05;;;3.20;;
67065;SDS011;53978;43.846;25.952;2023-07-20T00:07:09;36.10;;;4.55;;
67065;SDS011;53978;43.846;25.952;2023-07-20T00:09:34;22.27;;;2.95;;
67065;SDS011;53978;43.846;25.952;2023-07-20T00:12:00;19.30;;;3.40;;
67065;SDS011;53978;43.846;25.952;2023-07-20T00:14:25;18.85;;;3.97;;
67065;SDS011;53978;43.846;25.952;2023-07-20T00:16:51;20.00;;;3.53;;
67065;SDS011;53978;43.846;25.952;2023-07-20T00:19:24;18.15;;;4.13;;
67065;SDS011;53978;43.846;25.952;2023-07-20T00:21:50;11.05;;;3.83;;
67065;SDS011;53978;43.846;25.952;2023-07-20T00:24:16;9.93;;;4.07;;
67065;SDS011;53978;43.846;25.952;2023-07-20T00:26:42;16.70;;;5.15;;
67065;SDS011;53978;43.846;25.952;2023-07-20T00:29:07;11.48;;;4.68;;
67065;SDS011;53978;43.846;25.952;2023-07-20T00:31:32;10.98;;;5.50;;
67065;SDS011;53978;43.846;25.952;2023-07-20T00:34:00;11.50;;;4.20;;
67065;SDS011;53978;43.846;25.952;2023-07-20T00:36:25;7.95;;;4.35;;
67065;SDS011;53978;43.846;25.952;2023-07-20T00:38:51;16.40;;;5.00;;
67065;SDS011;53978;43.846;25.952;2023-07-20T00:41:16;9.35;;;4.53;;
67065;SDS011;53978;43.846;25.952;2023-07-20T00:43:42;13.90;;;4.63;;
67065;SDS011;53978;43.846;25.952;2023-07-20T00:46:08;6.82;;;4.15;;
67065;SDS011;53978;43.846;25.952;2023-07-20T00:48:34;8.50;;;3.88;;
67065;SDS011;53978;43.846;25.952;2023-07-20T00:50:59;18.67;;;4.30;;
67065;SDS011;53978;43.846;25.952;2023-07-20T00:53:25;13.35;;;3.92;;
67065;SDS011;53978;43.846;25.952;2023-07-20T00:55:50;9.10;;;3.55;;
67065;SDS011;53978;43.846;25.952;2023-07-20T00:58:16;10.48;;;3.42;;
67065;SDS011;53978;43.846;25.952;2023-07-20T01:00:41;10.32;;;3.20;;
67065;SDS011;53978;43.846;25.952;2023-07-20T01:03:07;11.88;;;2.97;;
67065;SDS011;53978;43.846;25.952;2023-07-20T01:05:42;5.95;;;3.13;;
67065;SDS011;53978;43.846;25.952;2023-07-20T01:11:06;7.75;;;2.30;;
67065;SDS011;53978;43.846;25.952;2023-07-20T01:13:37;6.50;;;2.60;;
67065;SDS011;53978;43.846;25.952;2023-07-20T01:16:03;14.90;;;3.05;;
67065;SDS011;53978;43.846;25.952;2023-07-20T01:18:28;13.40;;;3.55;;
67065;SDS011;53978;43.846;25.952;2023-07-20T01:20:55;16.80;;;2.78;;
67065;SDS011;53978;43.846;25.952;2023-07-20T01:23:33;10.38;;;2.72;;
67065;SDS011;53978;43.846;25.952;2023-07-20T01:31:36;11.85;;;2.60;;
67065;SDS011;53978;43.846;25.952;2023-07-20T01:34:02;9.65;;;2.50;;
67065;SDS011;53978;43.846;25.952;2023-07-20T01:36:30;12.90;;;2.80;;
67065;SDS011;53978;43.846;25.952;2023-07-20T01:38:56;17.23;;;3.03;;
67065;SDS011;53978;43.846;25.952;2023-07-20T01:41:21;10.55;;;2.50;;
67065;SDS011;53978;43.846;25.952;2023-07-20T01:43:47;14.30;;;2.97;;
67065;SDS011;53978;43.846;25.952;2023-07-20T01:46:12;13.73;;;2.70;;
67065;SDS011;53978;43.846;25.952;2023-07-20T01:48:38;8.98;;;2.45;;
67065;SDS011;53978;43.846;25.952;2023-07-20T01:51:03;8.73;;;2.30;;
67065;SDS011;53978;43.846;25.952;2023-07-20T01:53:29;11.95;;;3.70;;
67065;SDS011;53978;43.846;25.952;2023-07-20T01:55:54;9.93;;;2.50;;
67065;SDS011;53978;43.846;25.952;2023-07-20T01:58:20;13.57;;;2.47;;
67065;SDS011;53978;43.846;25.952;2023-07-20T02:00:46;11.43;;;2.40;;
67065;SDS011;53978;43.846;25.952;2023-07-20T02:03:11;8.30;;;2.17;;
67065;SDS011;53978;43.846;25.952;2023-07-20T02:05:39;12.40;;;2.60;;
67065;SDS011;53978;43.846;25.952;2023-07-20T02:08:07;5.40;;;2.60;;
67065;SDS011;53978;43.846;25.952;2023-07-20T02:10:32;6.43;;;2.40;;
67065;SDS011;53978;43.846;25.952;2023-07-20T02:12:58;9.52;;;2.88;;
67065;SDS011;53978;43.846;25.952;2023-07-20T02:15:23;9.45;;;2.78;;
67065;SDS011;53978;43.846;25.952;2023-07-20T02:17:49;6.75;;;2.70;;
67065;SDS011;53978;43.846;25.952;2023-07-20T02:20:14;9.93;;;2.10;;
67065;SDS011;53978;43.846;25.952;2023-07-20T02:22:40;6.93;;;2.05;;
67065;SDS011;53978;43.846;25.952;2023-07-20T02:25:05;5.13;;;2.00;;
67065;SDS011;53978;43.846;25.952;2023-07-20T02:27:32;4.82;;;2.20;;
67065;SDS011;53978;43.846;25.952;2023-07-20T02:30:01;4.32;;;2.13;;
67065;SDS011;53978;43.846;25.952;2023-07-20T02:32:28;5.22;;;2.20;;
67065;SDS011;53978;43.846;25.952;2023-07-20T02:34:53;4.22;;;2.10;;
67065;SDS011;53978;43.846;25.952;2023-07-20T02:37:18;7.88;;;2.17;;
67065;SDS011;53978;43.846;25.952;2023-07-20T02:39:44;4.05;;;2.05;;
67065;SDS011;53978;43.846;25.952;2023-07-20T02:42:09;5.43;;;1.85;;
67065;SDS011;53978;43.846;25.952;2023-07-20T02:44:35;5.15;;;1.70;;
67065;SDS011;53978;43.846;25.952;2023-07-20T02:47:00;12.88;;;2.20;;
67065;SDS011;53978;43.846;25.952;2023-07-20T02:49:26;8.95;;;2.42;;
67065;SDS011;53978;43.846;25.952;2023-07-20T02:51:52;3.95;;;1.92;;
67065;SDS011;53978;43.846;25.952;2023-07-20T02:54:17;5.93;;;1.67;;
67065;SDS011;53978;43.846;25.952;2023-07-20T02:56:43;7.00;;;2.30;;
67065;SDS011;53978;43.846;25.952;2023-07-20T02:59:08;6.22;;;2.20;;
67065;SDS011;53978;43.846;25.952;2023-07-20T03:01:33;3.97;;;1.98;;
67065;SDS011;53978;43.846;25.952;2023-07-20T03:03:59;3.60;;;2.08;;
67065;SDS011;53978;43.846;25.952;2023-07-20T03:06:24;3.95;;;2.05;;
67065;SDS011;53978;43.846;25.952;2023-07-20T03:08:50;5.63;;;1.90;;
67065;SDS011;53978;43.846;25.952;2023-07-20T03:11:18;7.78;;;2.30;;
67065;SDS011;53978;43.846;25.952;2023-07-20T03:13:44;6.00;;;2.03;;
67065;SDS011;53978;43.846;25.952;2023-07-20T03:16:10;6.00;;;1.90;;
67065;SDS011;53978;43.846;25.952;2023-07-20T03:18:39;4.13;;;2.00;;
67065;SDS011;53978;43.846;25.952;2023-07-20T03:21:05;5.28;;;1.77;;
67065;SDS011;53978;43.846;25.952;2023-07-20T03:23:31;5.10;;;1.95;;
67065;SDS011;53978;43.846;25.952;2023-07-20T03:25:57;3.75;;;1.88;;
67065;SDS011;53978;43.846;25.952;2023-07-20T03:28:22;9.63;;;2.00;;
67065;SDS011;53978;43.846;25.952;2023-07-20T03:30:54;2.90;;;2.00;;
67065;SDS011;53978;43.846;25.952;2023-07-20T03:33:21;5.88;;;2.20;;
67065;SDS011;53978;43.846;25.952;2023-07-20T03:35:54;7.20;;;2.40;;
67065;SDS011;53978;43.846;25.952;2023-07-20T03:38:20;5.63;;;1.80;;
67065;SDS011;53978;43.846;25.952;2023-07-20T03:40:52;6.10;;;1.67;;
67065;SDS011;53978;43.846;25.952;2023-07-20T03:43:17;7.65;;;1.80;;
67065;SDS011;53978;43.846;25.952;2023-07-20T03:45:43;3.78;;;1.88;;
67065;SDS011;53978;43.846;25.952;2023-07-20T03:48:10;5.88;;;1.77;;
67065;SDS011;53978;43.846;25.952;2023-07-20T03:50:36;51.70;;;6.90;;
67065;SDS011;53978;43.846;25.952;2023-07-20T03:53:01;16.67;;;2.97;;
67065;SDS011;53978;43.846;25.952;2023-07-20T03:55:26;11.50;;;1.80;;
67065;SDS011;53978;43.846;25.952;2023-07-20T03:57:53;7.43;;;1.80;;
67065;SDS011;53978;43.846;25.952;2023-07-20T04:00:18;5.60;;;1.55;;
67065;SDS011;53978;43.846;25.952;2023-07-20T04:02:44;8.02;;;1.80;;
67065;SDS011;53978;43.846;25.952;2023-07-20T04:05:09;4.45;;;1.60;;
67065;SDS011;53978;43.846;25.952;2023-07-20T04:07:35;4.80;;;1.90;;
67065;SDS011;53978;43.846;25.952;2023-07-20T04:10:00;8.52;;;1.70;;
67065;SDS011;53978;43.846;25.952;2023-07-20T04:12:25;9.73;;;2.00;;
67065;SDS011;53978;43.846;25.952;2023-07-20T04:14:51;4.97;;;1.85;;
67065;SDS011;53978;43.846;25.952;2023-07-20T04:17:16;8.80;;;2.13;;
67065;SDS011;53978;43.846;25.952;2023-07-20T04:19:42;7.07;;;2.03;;
67065;SDS011;53978;43.846;25.952;2023-07-20T04:22:08;11.52;;;1.80;;
67065;SDS011;53978;43.846;25.952;2023-07-20T04:24:33;8.38;;;1.98;;
67065;SDS011;53978;43.846;25.952;2023-07-20T04:26:58;17.90;;;2.15;;
67065;SDS011;53978;43.846;25.952;2023-07-20T04:29:24;22.52;;;2.08;;
67065;SDS011;53978;43.846;25.952;2023-07-20T04:31:49;7.22;;;1.90;;
67065;SDS011;53978;43.846;25.952;2023-07-20T04:34:14;20.95;;;2.28;;
67065;SDS011;53978;43.846;25.952;2023-07-20T04:36:40;10.73;;;2.45;;
67065;SDS011;53978;43.846;25.952;2023-07-20T04:39:05;9.30;;;2.00;;
67065;SDS011;53978;43.846;25.952;2023-07-20T04:41:33;5.88;;;2.30;;
67065;SDS011;53978;43.846;25.952;2023-07-20T04:43:58;5.85;;;1.83;;
67065;SDS011;53978;43.846;25.952;2023-07-20T04:46:23;11.05;;;1.95;;
67065;SDS011;53978;43.846;25.952;2023-07-20T04:48:49;12.02;;;2.33;;
67065;SDS011;53978;43.846;25.952;2023-07-20T04:51:14;6.03;;;2.00;;
67065;SDS011;53978;43.846;25.952;2023-07-20T04:53:40;9.98;;;2.05;;
67065;SDS011;53978;43.846;25.952;2023-07-20T04:56:05;22.35;;;2.17;;
67065;SDS011;53978;43.846;25.952;2023-07-20T04:58:30;27.05;;;2.72;;
67065;SDS011;53978;43.846;25.952;2023-07-20T05:00:56;9.07;;;2.10;;
67065;SDS011;53978;43.846;25.952;2023-07-20T05:03:21;17.88;;;2.47;;
67065;SDS011;53978;43.846;25.952;2023-07-20T05:05:47;8.32;;;2.88;;
67065;SDS011;53978;43.846;25.952;2023-07-20T05:08:13;24.55;;;3.15;;
67065;SDS011;53978;43.846;25.952;2023-07-20T05:10:38;38.08;;;3.80;;
67065;SDS011;53978;43.846;25.952;2023-07-20T05:13:04;22.08;;;2.40;;
67065;SDS011;53978;43.846;25.952;2023-07-20T05:15:29;5.28;;;1.90;;
67065;SDS011;53978;43.846;25.952;2023-07-20T05:17:55;45.10;;;4.10;;
67065;SDS011;53978;43.846;25.952;2023-07-20T05:20:20;7.25;;;1.60;;
67065;SDS011;53978;43.846;25.952;2023-07-20T05:22:46;8.85;;;2.15;;
67065;SDS011;53978;43.846;25.952;2023-07-20T05:25:11;2.65;;;2.03;;
67065;SDS011;53978;43.846;25.952;2023-07-20T05:27:37;7.63;;;2.95;;
67065;SDS011;53978;43.846;25.952;2023-07-20T05:30:03;7.65;;;2.55;;
67065;SDS011;53978;43.846;25.952;2023-07-20T05:32:29;8.75;;;2.20;;
67065;SDS011;53978;43.846;25.952;2023-07-20T05:34:55;3.58;;;2.20;;
67065;SDS011;53978;43.846;25.952;2023-07-20T05:37:20;2.65;;;2.30;;
67065;SDS011;53978;43.846;25.952;2023-07-20T05:39:46;15.98;;;3.17;;
67065;SDS011;53978;43.846;25.952;2023-07-20T05:42:11;5.90;;;2.38;;
67065;SDS011;53978;43.846;25.952;2023-07-20T05:44:37;8.57;;;2.33;;
67065;SDS011;53978;43.846;25.952;2023-07-20T05:47:02;9.50;;;2.60;;
67065;SDS011;53978;43.846;25.952;2023-07-20T05:49:28;12.95;;;2.80;;
67065;SDS011;53978;43.846;25.952;2023-07-20T05:51:54;9.77;;;2.90;;
67065;SDS011;53978;43.846;25.952;2023-07-20T05:54:20;8.77;;;3.10;;
67065;SDS011;53978;43.846;25.952;2023-07-20T05:56:46;18.63;;;3.05;;
67065;SDS011;53978;43.846;25.952;2023-07-20T05:59:12;12.40;;;2.70;;
67065;SDS011;53978;43.846;25.952;2023-07-20T06:01:37;12.85;;;2.88;;
67065;SDS011;53978;43.846;25.952;2023-07-20T06:04:03;14.55;;;2.80;;
67065;SDS011;53978;43.846;25.952;2023-07-20T06:06:28;12.10;;;2.95;;
67065;SDS011;53978;43.846;25.952;2023-07-20T06:08:54;11.10;;;2.83;;
67065;SDS011;53978;43.846;25.952;2023-07-20T06:11:20;17.90;;;2.80;;
67065;SDS011;53978;43.846;25.952;2023-07-20T06:13:45;14.10;;;2.90;;
67065;SDS011;53978;43.846;25.952;2023-07-20T06:16:10;9.27;;;2.50;;
67065;SDS011;53978;43.846;25.952;2023-07-20T06:18:36;13.25;;;2.85;;
67065;SDS011;53978;43.846;25.952;2023-07-20T06:21:01;16.27;;;4.30;;
67065;SDS011;53978;43.846;25.952;2023-07-20T06:23:27;11.07;;;3.08;;
67065;SDS011;53978;43.846;25.952;2023-07-20T06:25:52;8.32;;;3.05;;
67065;SDS011;53978;43.846;25.952;2023-07-20T06:28:18;12.27;;;3.75;;
67065;SDS011;53978;43.846;25.952;2023-07-20T06:30:43;9.77;;;3.13;;
67065;SDS011;53978;43.846;25.952;2023-07-20T06:33:08;11.85;;;3.55;;
67065;SDS011;53978;43.846;25.952;2023-07-20T06:35:34;17.38;;;3.17;;
67065;SDS011;53978;43.846;25.952;2023-07-20T06:38:01;8.68;;;3.10;;
67065;SDS011;53978;43.846;25.952;2023-07-20T06:40:28;7.72;;;3.00;;
67065;SDS011;53978;43.846;25.952;2023-07-20T06:42:54;15.48;;;3.28;;
67065;SDS011;53978;43.846;25.952;2023-07-20T06:45:20;10.77;;;3.55;;
67065;SDS011;53978;43.846;25.952;2023-07-20T06:47:45;16.05;;;3.20;;
67065;SDS011;53978;43.846;25.952;2023-07-20T06:50:11;4.50;;;2.50;;
67065;SDS011;53978;43.846;25.952;2023-07-20T06:52:36;9.20;;;3.28;;
67065;SDS011;53978;43.846;25.952;2023-07-20T06:55:02;7.30;;;2.50;;
67065;SDS011;53978;43.846;25.952;2023-07-20T06:57:27;5.07;;;2.03;;
67065;SDS011;53978;43.846;25.952;2023-07-20T06:59:53;7.63;;;3.47;;
67065;SDS011;53978;43.846;25.952;2023-07-20T07:02:18;6.00;;;2.28;;
67065;SDS011;53978;43.846;25.952;2023-07-20T07:04:44;10.35;;;2.70;;
67065;SDS011;53978;43.846;25.952;2023-07-20T07:07:11;9.52;;;2.60;;
67065;SDS011;53978;43.846;25.952;2023-07-20T07:09:38;11.80;;;2.60;;
67065;SDS011;53978;43.846;25.952;2023-07-20T07:12:04;13.88;;;3.35;;
67065;SDS011;53978;43.846;25.952;2023-07-20T07:14:29;3.97;;;2.60;;
67065;SDS011;53978;43.846;25.952;2023-07-20T07:16:55;5.05;;;3.08;;
67065;SDS011;53978;43.846;25.952;2023-07-20T07:19:20;6.22;;;3.35;;
67065;SDS011;53978;43.846;25.952;2023-07-20T07:21:45;6.85;;;3.53;;
67065;SDS011;53978;43.846;25.952;2023-07-20T07:24:11;3.92;;;2.90;;
67065;SDS011;53978;43.846;25.952;2023-07-20T07:26:37;11.52;;;3.28;;
67065;SDS011;53978;43.846;25.952;2023-07-20T07:29:02;7.72;;;3.33;;
67065;SDS011;53978;43.846;25.952;2023-07-20T07:31:28;6.43;;;3.65;;
67065;SDS011;53978;43.846;25.952;2023-07-20T07:33:56;6.88;;;4.13;;
67065;SDS011;53978;43.846;25.952;2023-07-20T07:36:21;13.40;;;5.38;;
67065;SDS011;53978;43.846;25.952;2023-07-20T07:38:49;7.45;;;4.50;;
67065;SDS011;53978;43.846;25.952;2023-07-20T07:41:14;14.57;;;6.68;;
67065;SDS011;53978;43.846;25.952;2023-07-20T07:43:40;8.82;;;4.38;;
67065;SDS011;53978;43.846;25.952;2023-07-20T07:46:05;6.97;;;3.70;;
67065;SDS011;53978;43.846;25.952;2023-07-20T07:48:31;6.43;;;3.75;;
67065;SDS011;53978;43.846;25.952;2023-07-20T07:50:56;9.57;;;4.28;;
67065;SDS011;53978;43.846;25.952;2023-07-20T07:53:22;8.18;;;4.47;;
67065;SDS011;53978;43.846;25.952;2023-07-20T07:55:47;25.65;;;7.07;;
67065;SDS011;53978;43.846;25.952;2023-07-20T07:58:13;13.68;;;6.10;;
67065;SDS011;53978;43.846;25.952;2023-07-20T08:00:39;6.78;;;3.90;;
67065;SDS011;53978;43.846;25.952;2023-07-20T08:03:06;7.90;;;4.75;;
67065;SDS011;53978;43.846;25.952;2023-07-20T08:05:31;14.93;;;5.18;;
67065;SDS011;53978;43.846;25.952;2023-07-20T08:07:57;7.30;;;4.20;;
67065;SDS011;53978;43.846;25.952;2023-07-20T08:10:22;12.20;;;6.18;;
67065;SDS011;53978;43.846;25.952;2023-07-20T08:12:48;15.98;;;5.00;;
67065;SDS011;53978;43.846;25.952;2023-07-20T08:15:13;10.65;;;6.25;;
67065;SDS011;53978;43.846;25.952;2023-07-20T08:17:40;12.23;;;6.05;;
67065;SDS011;53978;43.846;25.952;2023-07-20T08:20:06;7.35;;;4.43;;
67065;SDS011;53978;43.846;25.952;2023-07-20T08:22:34;9.23;;;3.60;;
67065;SDS011;53978;43.846;25.952;2023-07-20T08:25:00;8.95;;;4.40;;
67065;SDS011;53978;43.846;25.952;2023-07-20T08:27:25;10.68;;;5.70;;
67065;SDS011;53978;43.846;25.952;2023-07-20T08:29:50;13.75;;;3.88;;
67065;SDS011;53978;43.846;25.952;2023-07-20T08:32:16;13.48;;;6.43;;
67065;SDS011;53978;43.846;25.952;2023-07-20T08:34:41;13.50;;;4.88;;
67065;SDS011;53978;43.846;25.952;2023-07-20T08:37:07;12.13;;;5.72;;
67065;SDS011;53978;43.846;25.952;2023-07-20T08:39:34;9.73;;;5.38;;
67065;SDS011;53978;43.846;25.952;2023-07-20T08:42:00;15.43;;;4.60;;
67065;SDS011;53978;43.846;25.952;2023-07-20T08:44:29;15.77;;;5.50;;
67065;SDS011;53978;43.846;25.952;2023-07-20T08:46:54;20.50;;;6.97;;
67065;SDS011;53978;43.846;25.952;2023-07-20T08:49:20;13.45;;;4.80;;
67065;SDS011;53978;43.846;25.952;2023-07-20T08:51:46;6.57;;;3.70;;
67065;SDS011;53978;43.846;25.952;2023-07-20T08:54:12;9.75;;;5.00;;
67065;SDS011;53978;43.846;25.952;2023-07-20T08:56:38;6.82;;;4.28;;
67065;SDS011;53978;43.846;25.952;2023-07-20T08:59:07;7.70;;;3.78;;
67065;SDS011;53978;43.846;25.952;2023-07-20T09:01:33;5.15;;;2.95;;
67065;SDS011;53978;43.846;25.952;2023-07-20T09:04:00;10.98;;;3.55;;
67065;SDS011;53978;43.846;25.952;2023-07-20T09:06:26;6.15;;;3.10;;
67065;SDS011;53978;43.846;25.952;2023-07-20T09:08:51;6.13;;;3.10;;
67065;SDS011;53978;43.846;25.952;2023-07-20T09:11:16;5.57;;;3.25;;
67065;SDS011;53978;43.846;25.952;2023-07-20T09:13:42;6.80;;;3.45;;
67065;SDS011;53978;43.846;25.952;2023-07-20T09:16:08;13.43;;;4.07;;
67065;SDS011;53978;43.846;25.952;2023-07-20T09:18:36;6.13;;;2.60;;
67065;SDS011;53978;43.846;25.952;2023-07-20T09:21:02;9.45;;;3.88;;
67065;SDS011;53978;43.846;25.952;2023-07-20T09:25:58;7.68;;;2.88;;
67065;SDS011;53978;43.846;25.952;2023-07-20T09:28:24;6.45;;;2.58;;
67065;SDS011;53978;43.846;25.952;2023-07-20T09:30:49;4.93;;;3.55;;
67065;SDS011;53978;43.846;25.952;2023-07-20T09:33:18;9.73;;;3.20;;
67065;SDS011;53978;43.846;25.952;2023-07-20T09:35:44;7.35;;;3.45;;
67065;SDS011;53978;43.846;25.952;2023-07-20T09:38:10;8.10;;;3.38;;
67065;SDS011;53978;43.846;25.952;2023-07-20T09:40:38;13.82;;;5.40;;
67065;SDS011;53978;43.846;25.952;2023-07-20T09:43:07;9.20;;;3.65;;
67065;SDS011;53978;43.846;25.952;2023-07-20T09:45:34;8.52;;;3.88;;
67065;SDS011;53978;43.846;25.952;2023-07-20T09:48:06;11.48;;;4.93;;
67065;SDS011;53978;43.846;25.952;2023-07-20T09:50:34;7.45;;;3.80;;
67065;SDS011;53978;43.846;25.952;2023-07-20T09:53:02;15.30;;;3.45;;
67065;SDS011;53978;43.846;25.952;2023-07-20T09:55:28;6.28;;;3.70;;
67065;SDS011;53978;43.846;25.952;2023-07-20T09:57:54;12.82;;;4.00;;
67065;SDS011;53978;43.846;25.952;2023-07-20T10:00:22;7.07;;;3.38;;
67065;SDS011;53978;43.846;25.952;2023-07-20T10:02:47;14.57;;;4.50;;
67065;SDS011;53978;43.846;25.952;2023-07-20T10:05:15;7.13;;;3.70;;
67065;SDS011;53978;43.846;25.952;2023-07-20T10:07:46;9.75;;;3.50;;
67065;SDS011;53978;43.846;25.952;2023-07-20T10:10:13;15.45;;;3.10;;
67065;SDS011;53978;43.846;25.952;2023-07-20T10:12:40;16.88;;;5.75;;
67065;SDS011;53978;43.846;25.952;2023-07-20T10:15:10;12.05;;;2.80;;
67065;SDS011;53978;43.846;25.952;2023-07-20T10:17:39;11.80;;;3.85;;
67065;SDS011;53978;43.846;25.952;2023-07-20T10:20:09;9.20;;;3.30;;
67065;SDS011;53978;43.846;25.952;2023-07-20T10:22:35;7.65;;;3.80;;
67065;SDS011;53978;43.846;25.952;2023-07-20T10:25:01;9.10;;;4.07;;
67065;SDS011;53978;43.846;25.952;2023-07-20T10:27:27;7.60;;;4.32;;
67065;SDS011;53978;43.846;25.952;2023-07-20T10:29:52;11.45;;;3.88;;
67065;SDS011;53978;43.846;25.952;2023-07-20T10:32:20;13.57;;;4.18;;
67065;SDS011;53978;43.846;25.952;2023-07-20T10:34:52;9.40;;;3.33;;
67065;SDS011;53978;43.846;25.952;2023-07-20T10:43:08;11.38;;;4.53;;
67065;SDS011;53978;43.846;25.952;2023-07-20T10:45:35;8.93;;;4.88;;
67065;SDS011;53978;43.846;25.952;2023-07-20T10:48:05;10.80;;;4.75;;
67065;SDS011;53978;43.846;25.952;2023-07-20T10:50:32;4.45;;;2.83;;
67065;SDS011;53978;43.846;25.952;2023-07-20T10:53:32;11.60;;;4.88;;
67065;SDS011;53978;43.846;25.952;2023-07-20T10:55:53;5.63;;;2.95;;
67065;SDS011;53978;43.846;25.952;2023-07-20T10:58:34;9.23;;;2.90;;
67065;SDS011;53978;43.846;25.952;2023-07-20T11:01:00;14.68;;;4.05;;
67065;SDS011;53978;43.846;25.952;2023-07-20T11:03:48;8.20;;;3.40;;
67065;SDS011;53978;43.846;25.952;2023-07-20T11:08:49;5.25;;;2.95;;
67065;SDS011;53978;43.846;25.952;2023-07-20T11:13:56;10.27;;;3.40;;
67065;SDS011;53978;43.846;25.952;2023-07-20T11:19:26;13.18;;;3.78;;
67065;SDS011;53978;43.846;25.952;2023-07-20T11:21:52;12.98;;;3.97;;
67065;SDS011;53978;43.846;25.952;2023-07-20T11:24:19;11.77;;;3.22;;
67065;SDS011;53978;43.846;25.952;2023-07-20T11:26:46;9.88;;;3.55;;
67065;SDS011;53978;43.846;25.952;2023-07-20T11:29:13;8.43;;;3.55;;
67065;SDS011;53978;43.846;25.952;2023-07-20T11:31:39;11.02;;;3.88;;
67065;SDS011;53978;43.846;25.952;2023-07-20T11:34:06;9.30;;;4.70;;
67065;SDS011;53978;43.846;25.952;2023-07-20T11:36:33;19.15;;;6.78;;
67065;SDS011;53978;43.846;25.952;2023-07-20T11:38:58;11.65;;;3.45;;
67065;SDS011;53978;43.846;25.952;2023-07-20T11:41:25;8.15;;;3.47;;
67065;SDS011;53978;43.846;25.952;2023-07-20T11:43:53;10.40;;;3.50;;
67065;SDS011;53978;43.846;25.952;2023-07-20T11:46:19;10.57;;;3.72;;
67065;SDS011;53978;43.846;25.952;2023-07-20T11:48:44;9.57;;;3.50;;
67065;SDS011;53978;43.846;25.952;2023-07-20T11:51:13;9.73;;;3.65;;
67065;SDS011;53978;43.846;25.952;2023-07-20T11:53:40;6.72;;;3.45;;
67065;SDS011;53978;43.846;25.952;2023-07-20T11:56:07;8.18;;;3.72;;
67065;SDS011;53978;43.846;25.952;2023-07-20T11:58:32;5.85;;;2.70;;
67065;SDS011;53978;43.846;25.952;2023-07-20T12:00:57;3.47;;;2.78;;
67065;SDS011;53978;43.846;25.952;2023-07-20T12:03:23;6.82;;;3.28;;
67065;SDS011;53978;43.846;25.952;2023-07-20T12:05:48;11.32;;;3.47;;
67065;SDS011;53978;43.846;25.952;2023-07-20T12:08:15;5.20;;;2.80;;
67065;SDS011;53978;43.846;25.952;2023-07-20T12:10:41;7.63;;;4.35;;
67065;SDS011;53978;43.846;25.952;2023-07-20T12:13:09;10.90;;;5.85;;
67065;SDS011;53978;43.846;25.952;2023-07-20T12:15:36;12.88;;;4.63;;
67065;SDS011;53978;43.846;25.952;2023-07-20T12:18:02;6.38;;;3.42;;
67065;SDS011;53978;43.846;25.952;2023-07-20T12:20:29;13.80;;;3.42;;
67065;SDS011;53978;43.846;25.952;2023-07-20T12:22:57;5.03;;;2.72;;
67065;SDS011;53978;43.846;25.952;2023-07-20T12:25:32;6.72;;;2.50;;
67065;SDS011;53978;43.846;25.952;2023-07-20T12:28:10;9.50;;;2.50;;
67065;SDS011;53978;43.846;25.952;2023-07-20T12:30:40;11.90;;;5.53;;
67065;SDS011;53978;43.846;25.952;2023-07-20T12:33:06;11.93;;;3.78;;
67065;SDS011;53978;43.846;25.952;2023-07-20T12:35:32;8.15;;;3.10;;
67065;SDS011;53978;43.846;25.952;2023-07-20T12:37:58;13.77;;;2.97;;
67065;SDS011;53978;43.846;25.952;2023-07-20T12:40:24;6.25;;;2.72;;
67065;SDS011;53978;43.846;25.952;2023-07-20T12:42:50;7.35;;;2.50;;
67065;SDS011;53978;43.846;25.952;2023-07-20T12:45:15;7.35;;;2.28;;
67065;SDS011;53978;43.846;25.952;2023-07-20T12:47:41;4.80;;;2.40;;
67065;SDS011;53978;43.846;25.952;2023-07-20T12:50:08;4.35;;;2.22;;
67065;SDS011;53978;43.846;25.952;2023-07-20T12:52:37;9.25;;;3.42;;
67065;SDS011;53978;43.846;25.952;2023-07-20T12:55:03;12.93;;;3.08;;
67065;SDS011;53978;43.846;25.952;2023-07-20T12:57:29;4.28;;;2.97;;
67065;SDS011;53978;43.846;25.952;2023-07-20T12:59:55;6.20;;;2.85;;
67065;SDS011;53978;43.846;25.952;2023-07-20T13:02:20;7.15;;;2.60;;
67065;SDS011;53978;43.846;25.952;2023-07-20T13:04:46;9.32;;;2.95;;
67065;SDS011;53978;43.846;25.952;2023-07-20T13:07:11;9.15;;;3.60;;
67065;SDS011;53978;43.846;25.952;2023-07-20T13:09:39;20.35;;;4.15;;
67065;SDS011;53978;43.846;25.952;2023-07-20T13:12:05;12.52;;;4.13;;
67065;SDS011;53978;43.846;25.952;2023-07-20T13:14:30;18.13;;;2.88;;
67065;SDS011;53978;43.846;25.952;2023-07-20T13:16:56;13.52;;;2.70;;
67065;SDS011;53978;43.846;25.952;2023-07-20T13:19:21;14.65;;;4.00;;
67065;SDS011;53978;43.846;25.952;2023-07-20T13:21:47;10.93;;;4.35;;
67065;SDS011;53978;43.846;25.952;2023-07-20T13:24:12;13.98;;;3.10;;
67065;SDS011;53978;43.846;25.952;2023-07-20T13:26:38;4.10;;;2.28;;
67065;SDS011;53978;43.846;25.952;2023-07-20T13:29:03;9.40;;;3.00;;
67065;SDS011;53978;43.846;25.952;2023-07-20T13:31:29;5.35;;;2.05;;
67065;SDS011;53978;43.846;25.952;2023-07-20T13:33:54;5.20;;;1.73;;
67065;SDS011;53978;43.846;25.952;2023-07-20T13:36:21;16.95;;;3.50;;
67065;SDS011;53978;43.846;25.952;2023-07-20T13:38:47;8.30;;;2.97;;
67065;SDS011;53978;43.846;25.952;2023-07-20T13:41:13;8.30;;;2.78;;
67065;SDS011;53978;43.846;25.952;2023-07-20T13:43:40;3.72;;;2.03;;
67065;SDS011;53978;43.846;25.952;2023-07-20T13:46:05;5.93;;;2.55;;
67065;SDS011;53978;43.846;25.952;2023-07-20T13:48:31;4.75;;;2.70;;
67065;SDS011;53978;43.846;25.952;2023-07-20T13:50:56;11.90;;;2.50;;
67065;SDS011;53978;43.846;25.952;2023-07-20T13:53:22;14.75;;;3.20;;
67065;SDS011;53978;43.846;25.952;2023-07-20T13:55:47;6.97;;;1.88;;
67065;SDS011;53978;43.846;25.952;2023-07-20T13:58:13;11.52;;;2.17;;
67065;SDS011;53978;43.846;25.952;2023-07-20T14:00:39;5.18;;;1.75;;
67065;SDS011;53978;43.846;25.952;2023-07-20T14:03:05;7.00;;;1.83;;
67065;SDS011;53978;43.846;25.952;2023-07-20T14:05:30;8.00;;;2.55;;
67065;SDS011;53978;43.846;25.952;2023-07-20T14:07:55;6.65;;;2.75;;
67065;SDS011;53978;43.846;25.952;2023-07-20T14:10:21;9.70;;;2.53;;
67065;SDS011;53978;43.846;25.952;2023-07-20T14:12:46;5.57;;;2.20;;
67065;SDS011;53978;43.846;25.952;2023-07-20T14:15:12;5.60;;;1.83;;
67065;SDS011;53978;43.846;25.952;2023-07-20T14:17:37;5.13;;;2.60;;
67065;SDS011;53978;43.846;25.952;2023-07-20T14:20:03;4.40;;;2.17;;
67065;SDS011;53978;43.846;25.952;2023-07-20T14:22:31;6.38;;;1.67;;
67065;SDS011;53978;43.846;25.952;2023-07-20T14:24:57;11.90;;;1.98;;
67065;SDS011;53978;43.846;25.952;2023-07-20T14:27:22;4.13;;;1.70;;
67065;SDS011;53978;43.846;25.952;2023-07-20T14:29:47;12.13;;;1.83;;
67065;SDS011;53978;43.846;25.952;2023-07-20T14:32:13;5.30;;;1.70;;
67065;SDS011;53978;43.846;25.952;2023-07-20T14:34:39;12.77;;;2.58;;
67065;SDS011;53978;43.846;25.952;2023-07-20T14:37:05;2.95;;;1.50;;
67065;SDS011;53978;43.846;25.952;2023-07-20T14:39:31;8.05;;;1.80;;
67065;SDS011;53978;43.846;25.952;2023-07-20T14:41:56;7.18;;;1.70;;
67065;SDS011;53978;43.846;25.952;2023-07-20T14:44:22;3.45;;;1.80;;
67065;SDS011;53978;43.846;25.952;2023-07-20T14:46:47;4.28;;;1.70;;
67065;SDS011;53978;43.846;25.952;2023-07-20T14:49:13;11.02;;;2.42;;